sensor_id;sensor_type;location;lat;lon;timestamp;pressure;altitude;pressure_sealevel;temperature;humidity
45357;BME280;31092;51.924;21.448;2023-12-20T00:00:13;98863.66;;;5.26;100.00
45357;BME280;31092;51.924;21.448;2023-12-20T00:02:39;98872.34;;;5.28;100.00
45357;BME280;31092;51.924;21.448;2023-12-20T00:05:05;98835.13;;;5.02;100.00
45357;BME280;31092;51.924;21.448;2023-12-20T00:07:30;98864.84;;;5.23;100.00
45357;BME280;31092;51.924;21.448;2023-12-20T00:09:56;98858.16;;;5.19;100.00
45357;BME280;31092;51.924;21.448;2023-12-20T00:12:22;98851.00;;;5.20;100.00
45357;BME280;31092;51.924;21.448;2023-12-20T00:14:48;98827.47;;;5.07;100.00
45357;BME280;31092;51.924;21.448;2023-12-20T00:17:13;98844.16;;;5.17;100.00
45357;BME280;31092;51.924;21.448;2023-12-20T00:19:38;98817.09;;;5.04;100.00
45357;BME280;31092;51.924;21.448;2023-12-20T00:22:04;98836.78;;;5.19;100.00
45357;BME280;31092;51.924;21.448;2023-12-20T00:24:29;98835.13;;;5.18;100.00
45357;BME280;31092;51.924;21.448;2023-12-20T00:26:55;98836.97;;;5.18;100.00
45357;BME280;31092;51.924;21.448;2023-12-20T00:29:20;98841.63;;;5.16;100.00
45357;BME280;31092;51.924;21.448;2023-12-20T00:31:46;98835.97;;;5.19;100.00
45357;BME280;31092;51.924;21.448;2023-12-20T00:34:11;98836.47;;;5.14;100.00
45357;BME280;31092;51.924;21.448;2023-12-20T00:36:37;98801.09;;;4.96;100.00
45357;BME280;31092;51.924;21.448;2023-12-20T00:39:02;98825.13;;;5.12;100.00
45357;BME280;31092;51.924;21.448;2023-12-20T00:41:28;98828.78;;;5.11;100.00
45357;BME280;31092;51.924;21.448;2023-12-20T00:43:54;98834.31;;;5.10;100.00
45357;BME280;31092;51.924;21.448;2023-12-20T00:46:19;98798.59;;;4.94;100.00
45357;BME280;31092;51.924;21.448;2023-12-20T00:48:44;98829.47;;;5.13;100.00
45357;BME280;31092;51.924;21.448;2023-12-20T00:51:12;98796.09;;;4.93;100.00
45357;BME280;31092;51.924;21.448;2023-12-20T00:53:37;98796.09;;;4.93;100.00
45357;BME280;31092;51.924;21.448;2023-12-20T00:56:03;98813.94;;;5.09;100.00
45357;BME280;31092;51.924;21.448;2023-12-20T00:58:29;98810.94;;;5.12;100.00
45357;BME280;31092;51.924;21.448;2023-12-20T01:00:54;98767.91;;;4.90;100.00
45357;BME280;31092;51.924;21.448;2023-12-20T01:03:20;98765.56;;;4.87;100.00
45357;BME280;31092;51.924;21.448;2023-12-20T01:05:45;98793.94;;;5.04;100.00
45357;BME280;31092;51.924;21.448;2023-12-20T01:08:11;98794.59;;;5.07;100.00
45357;BME280;31092;51.924;21.448;2023-12-20T01:10:36;98770.56;;;4.90;100.00
45357;BME280;31092;51.924;21.448;2023-12-20T01:13:02;98760.22;;;4.87;100.00
45357;BME280;31092;51.924;21.448;2023-12-20T01:15:27;98788.13;;;5.09;100.00
45357;BME280;31092;51.924;21.448;2023-12-20T01:17:52;98761.75;;;4.90;100.00
45357;BME280;31092;51.924;21.448;2023-12-20T01:20:18;98759.25;;;4.88;100.00
45357;BME280;31092;51.924;21.448;2023-12-20T01:22:45;98790.59;;;5.02;100.00
45357;BME280;31092;51.924;21.448;2023-12-20T01:25:11;98776.25;;;5.03;100.00
45357;BME280;31092;51.924;21.448;2023-12-20T01:27:36;98760.59;;;4.92;100.00
45357;BME280;31092;51.924;21.448;2023-12-20T01:30:02;98774.41;;;5.04;100.00
45357;BME280;31092;51.924;21.448;2023-12-20T01:32:27;98777.75;;;5.06;100.00
45357;BME280;31092;51.924;21.448;2023-12-20T01:34:53;98748.56;;;4.88;100.00
45357;BME280;31092;51.924;21.448;2023-12-20T01:37:18;98741.06;;;4.84;100.00
45357;BME280;31092;51.924;21.448;2023-12-20T01:39:44;98760.06;;;5.05;100.00
45357;BME280;31092;51.924;21.448;2023-12-20T01:42:09;98720.91;;;4.81;100.00
45357;BME280;31092;51.924;21.448;2023-12-20T01:44:35;98724.41;;;4.82;100.00
45357;BME280;31092;51.924;21.448;2023-12-20T01:47:00;98755.59;;;5.06;100.00
45357;BME280;31092;51.924;21.448;2023-12-20T01:49:26;98748.56;;;5.04;100.00
45357;BME280;31092;51.924;21.448;2023-12-20T01:51:53;98743.22;;;5.04;100.00
45357;BME280;31092;51.924;21.448;2023-12-20T01:54:19;98746.06;;;5.03;100.00
45357;BME280;31092;51.924;21.448;2023-12-20T01:56:45;98742.25;;;5.06;100.00
45357;BME280;31092;51.924;21.448;2023-12-20T01:59:11;98738.72;;;5.05;100.00
45357;BME280;31092;51.924;21.448;2023-12-20T02:01:37;98726.88;;;5.08;100.00
45357;BME280;31092;51.924;21.448;2023-12-20T02:04:03;98715.03;;;4.94;100.00
45357;BME280;31092;51.924;21.448;2023-12-20T02:06:30;98703.38;;;4.87;100.00
45357;BME280;31092;51.924;21.448;2023-12-20T02:08:58;98714.72;;;4.97;100.00
45357;BME280;31092;51.924;21.448;2023-12-20T02:11:25;98704.06;;;4.89;100.00
45357;BME280;31092;51.924;21.448;2023-12-20T02:13:50;98690.22;;;4.85;100.00
45357;BME280;31092;51.924;21.448;2023-12-20T02:16:16;98725.22;;;5.07;100.00
45357;BME280;31092;51.924;21.448;2023-12-20T02:18:43;98723.56;;;5.06;100.00
45357;BME280;31092;51.924;21.448;2023-12-20T02:21:24;98677.03;;;4.84;100.00
45357;BME280;31092;51.924;21.448;2023-12-20T02:23:53;98689.88;;;4.88;100.00
45357;BME280;31092;51.924;21.448;2023-12-20T02:26:18;98711.38;;;5.03;100.00
45357;BME280;31092;51.924;21.448;2023-12-20T02:28:44;98707.19;;;5.09;100.00
45357;BME280;31092;51.924;21.448;2023-12-20T02:31:11;98687.03;;;4.90;100.00
45357;BME280;31092;51.924;21.448;2023-12-20T02:33:37;98711.88;;;5.07;100.00
45357;BME280;31092;51.924;21.448;2023-12-20T02:36:06;98712.72;;;5.07;100.00
45357;BME280;31092;51.924;21.448;2023-12-20T02:38:31;98717.03;;;5.08;100.00
45357;BME280;31092;51.924;21.448;2023-12-20T02:40:57;98679.03;;;4.90;100.00
45357;BME280;31092;51.924;21.448;2023-12-20T02:43:22;98703.69;;;5.08;100.00
45357;BME280;31092;51.924;21.448;2023-12-20T02:45:48;98702.72;;;5.09;100.00
45357;BME280;31092;51.924;21.448;2023-12-20T02:48:13;98694.03;;;5.07;100.00
45357;BME280;31092;51.924;21.448;2023-12-20T02:50:39;98669.19;;;4.90;100.00
45357;BME280;31092;51.924;21.448;2023-12-20T02:53:04;98706.03;;;5.11;100.00
45357;BME280;31092;51.924;21.448;2023-12-20T02:55:30;98709.72;;;5.10;100.00
45357;BME280;31092;51.924;21.448;2023-12-20T02:57:55;98694.88;;;5.08;100.00
45357;BME280;31092;51.924;21.448;2023-12-20T03:00:21;98664.69;;;4.91;100.00
45357;BME280;31092;51.924;21.448;2023-12-20T03:02:46;98661.19;;;4.90;100.00
45357;BME280;31092;51.924;21.448;2023-12-20T03:05:11;98668.22;;;4.91;100.00
45357;BME280;31092;51.924;21.448;2023-12-20T03:07:37;98699.69;;;5.12;100.00
45357;BME280;31092;51.924;21.448;2023-12-20T03:10:04;98691.19;;;5.09;100.00
45357;BME280;31092;51.924;21.448;2023-12-20T03:12:29;98691.19;;;5.09;100.00
45357;BME280;31092;51.924;21.448;2023-12-20T03:14:55;98686.34;;;5.04;100.00
45357;BME280;31092;51.924;21.448;2023-12-20T03:17:20;98695.53;;;5.10;100.00
45357;BME280;31092;51.924;21.448;2023-12-20T03:19:46;98683.84;;;5.11;100.00
45357;BME280;31092;51.924;21.448;2023-12-20T03:22:11;98678.34;;;5.12;100.00
45357;BME280;31092;51.924;21.448;2023-12-20T03:24:37;98653.69;;;4.94;100.00
45357;BME280;31092;51.924;21.448;2023-12-20T03:27:02;98664.38;;;5.02;100.00
45357;BME280;31092;51.924;21.448;2023-12-20T03:29:28;98658.38;;;4.92;100.00
45357;BME280;31092;51.924;21.448;2023-12-20T03:31:53;98681.38;;;5.09;100.00
45357;BME280;31092;51.924;21.448;2023-12-20T03:34:19;98679.53;;;5.10;100.00
45357;BME280;31092;51.924;21.448;2023-12-20T03:36:44;98683.69;;;5.12;100.00
45357;BME280;31092;51.924;21.448;2023-12-20T03:39:13;98658.88;;;4.95;100.00
45357;BME280;31092;51.924;21.448;2023-12-20T03:41:38;98691.69;;;5.12;100.00
45357;BME280;31092;51.924;21.448;2023-12-20T03:44:04;98681.88;;;5.13;100.00
45357;BME280;31092;51.924;21.448;2023-12-20T03:46:29;98678.53;;;5.11;100.00
45357;BME280;31092;51.924;21.448;2023-12-20T03:48:54;98654.50;;;4.94;100.00
45357;BME280;31092;51.924;21.448;2023-12-20T03:51:21;98650.38;;;4.92;100.00
45357;BME280;31092;51.924;21.448;2023-12-20T03:53:47;98668.19;;;5.08;100.00
45357;BME280;31092;51.924;21.448;2023-12-20T03:56:12;98643.50;;;4.97;100.00
45357;BME280;31092;51.924;21.448;2023-12-20T03:58:38;98677.34;;;5.13;100.00
45357;BME280;31092;51.924;21.448;2023-12-20T04:01:03;98655.84;;;5.07;100.00
45357;BME280;31092;51.924;21.448;2023-12-20T04:03:34;98669.84;;;5.17;100.00
45357;BME280;31092;51.924;21.448;2023-12-20T04:05:59;98671.00;;;5.14;100.00
45357;BME280;31092;51.924;21.448;2023-12-20T04:08:24;98669.34;;;5.13;100.00
45357;BME280;31092;51.924;21.448;2023-12-20T04:10:50;98632.00;;;4.97;100.00
45357;BME280;31092;51.924;21.448;2023-12-20T04:13:15;98669.16;;;5.15;100.00
45357;BME280;31092;51.924;21.448;2023-12-20T04:15:41;98628.50;;;4.96;100.00
45357;BME280;31092;51.924;21.448;2023-12-20T04:18:06;98656.31;;;5.18;100.00
45357;BME280;31092;51.924;21.448;2023-12-20T04:20:32;98660.00;;;5.17;100.00
45357;BME280;31092;51.924;21.448;2023-12-20T04:22:57;98656.69;;;4.99;100.00
45357;BME280;31092;51.924;21.448;2023-12-20T04:25:23;98669.34;;;5.13;100.00
45357;BME280;31092;51.924;21.448;2023-12-20T04:27:48;98632.19;;;4.95;100.00
45357;BME280;31092;51.924;21.448;2023-12-20T04:30:14;98658.34;;;5.16;100.00
45357;BME280;31092;51.924;21.448;2023-12-20T04:32:39;98655.50;;;5.10;100.00
45357;BME280;31092;51.924;21.448;2023-12-20T04:35:05;98634.03;;;4.95;100.00
45357;BME280;31092;51.924;21.448;2023-12-20T04:37:30;98637.69;;;5.02;100.00
45357;BME280;31092;51.924;21.448;2023-12-20T04:39:56;98619.00;;;4.94;100.00
45357;BME280;31092;51.924;21.448;2023-12-20T04:42:21;98641.34;;;5.09;100.00
45357;BME280;31092;51.924;21.448;2023-12-20T04:44:47;98665.00;;;5.12;100.00
45357;BME280;31092;51.924;21.448;2023-12-20T04:47:12;98662.81;;;5.16;100.00
45357;BME280;31092;51.924;21.448;2023-12-20T04:49:37;98631.19;;;4.96;100.00
45357;BME280;31092;51.924;21.448;2023-12-20T04:52:03;98629.19;;;4.98;100.00
45357;BME280;31092;51.924;21.448;2023-12-20T04:54:29;98638.66;;;5.01;100.00
45357;BME280;31092;51.924;21.448;2023-12-20T04:56:54;98658.69;;;5.13;100.00
45357;BME280;31092;51.924;21.448;2023-12-20T04:59:20;98645.84;;;5.00;100.00
45357;BME280;31092;51.924;21.448;2023-12-20T05:01:45;98657.00;;;5.12;100.00
45357;BME280;31092;51.924;21.448;2023-12-20T05:04:11;98652.66;;;5.11;100.00
45357;BME280;31092;51.924;21.448;2023-12-20T05:06:36;98665.66;;;5.14;100.00
45357;BME280;31092;51.924;21.448;2023-12-20T05:09:01;98652.00;;;5.09;100.00
45357;BME280;31092;51.924;21.448;2023-12-20T05:11:27;98625.50;;;4.99;100.00
45357;BME280;31092;51.924;21.448;2023-12-20T05:13:52;98618.34;;;4.92;100.00
45357;BME280;31092;51.924;21.448;2023-12-20T05:16:18;98608.66;;;4.91;100.00
45357;BME280;31092;51.924;21.448;2023-12-20T05:18:45;98618.84;;;4.95;100.00
45357;BME280;31092;51.924;21.448;2023-12-20T05:21:10;98624.19;;;4.95;100.00
45357;BME280;31092;51.924;21.448;2023-12-20T05:23:36;98615.69;;;4.92;100.00
45357;BME280;31092;51.924;21.448;2023-12-20T05:26:01;98640.34;;;5.10;100.00
45357;BME280;31092;51.924;21.448;2023-12-20T05:28:27;98640.97;;;5.12;100.00
45357;BME280;31092;51.924;21.448;2023-12-20T05:30:53;98636.16;;;5.08;100.00
45357;BME280;31092;51.924;21.448;2023-12-20T05:33:19;98641.84;;;5.13;100.00
45357;BME280;31092;51.924;21.448;2023-12-20T05:35:44;98601.34;;;4.93;100.00
45357;BME280;31092;51.924;21.448;2023-12-20T05:38:10;98606.00;;;4.91;100.00
45357;BME280;31092;51.924;21.448;2023-12-20T05:40:35;98645.47;;;5.12;100.00
45357;BME280;31092;51.924;21.448;2023-12-20T05:43:01;98633.34;;;5.09;100.00
45357;BME280;31092;51.924;21.448;2023-12-20T05:45:26;98600.16;;;4.87;100.00
45357;BME280;31092;51.924;21.448;2023-12-20T05:47:52;98645.34;;;5.13;100.00
45357;BME280;31092;51.924;21.448;2023-12-20T05:50:17;98645.81;;;5.17;100.00
45357;BME280;31092;51.924;21.448;2023-12-20T05:52:42;98609.84;;;4.96;100.00
45357;BME280;31092;51.924;21.448;2023-12-20T05:55:08;98608.34;;;4.94;100.00
45357;BME280;31092;51.924;21.448;2023-12-20T05:57:34;98638.16;;;5.14;100.00
45357;BME280;31092;51.924;21.448;2023-12-20T06:00:00;98638.31;;;5.12;100.00
45357;BME280;31092;51.924;21.448;2023-12-20T06:02:25;98607.34;;;4.95;100.00
45357;BME280;31092;51.924;21.448;2023-12-20T06:04:51;98610.03;;;4.95;100.00
45357;BME280;31092;51.924;21.448;2023-12-20T06:07:16;98629.81;;;5.09;100.00
45357;BME280;31092;51.924;21.448;2023-12-20T06:09:42;98637.00;;;5.16;100.00
45357;BME280;31092;51.924;21.448;2023-12-20T06:12:08;98606.50;;;5.02;100.00
45357;BME280;31092;51.924;21.448;2023-12-20T06:14:34;98610.03;;;4.95;100.00
45357;BME280;31092;51.924;21.448;2023-12-20T06:17:00;98611.50;;;4.97;100.00
45357;BME280;31092;51.924;21.448;2023-12-20T06:19:26;98639.16;;;5.13;100.00
45357;BME280;31092;51.924;21.448;2023-12-20T06:21:52;98614.16;;;4.97;100.00
45357;BME280;31092;51.924;21.448;2023-12-20T06:24:17;98632.81;;;5.14;100.00
45357;BME280;31092;51.924;21.448;2023-12-20T06:26:43;98640.00;;;5.13;100.00
45357;BME280;31092;51.924;21.448;2023-12-20T06:29:08;98639.16;;;5.13;100.00
45357;BME280;31092;51.924;21.448;2023-12-20T06:31:34;98612.69;;;4.95;100.00
45357;BME280;31092;51.924;21.448;2023-12-20T06:34:00;98626.16;;;5.01;100.00
45357;BME280;31092;51.924;21.448;2023-12-20T06:36:26;98634.50;;;5.07;100.00
45357;BME280;31092;51.924;21.448;2023-12-20T06:38:52;98608.50;;;4.92;100.00
45357;BME280;31092;51.924;21.448;2023-12-20T06:41:18;98625.81;;;5.04;100.00
45357;BME280;31092;51.924;21.448;2023-12-20T06:43:43;98642.81;;;5.12;100.00
45357;BME280;31092;51.924;21.448;2023-12-20T06:46:09;98643.97;;;5.17;100.00
45357;BME280;31092;51.924;21.448;2023-12-20T06:48:35;98647.00;;;5.14;100.00
45357;BME280;31092;51.924;21.448;2023-12-20T06:51:01;98647.00;;;5.14;100.00
45357;BME280;31092;51.924;21.448;2023-12-20T06:53:30;98621.34;;;4.97;100.00
45357;BME280;31092;51.924;21.448;2023-12-20T06:55:56;98651.31;;;5.15;100.00
45357;BME280;31092;51.924;21.448;2023-12-20T06:58:22;98607.34;;;4.95;100.00
45357;BME280;31092;51.924;21.448;2023-12-20T07:00:48;98607.34;;;4.95;100.00
45357;BME280;31092;51.924;21.448;2023-12-20T07:03:13;98617.50;;;4.99;100.00
45357;BME280;31092;51.924;21.448;2023-12-20T07:05:39;98641.66;;;5.14;100.00
45357;BME280;31092;51.924;21.448;2023-12-20T07:08:06;98608.00;;;4.97;100.00
45357;BME280;31092;51.924;21.448;2023-12-20T07:10:32;98635.00;;;5.10;100.00
45357;BME280;31092;51.924;21.448;2023-12-20T07:12:57;98635.50;;;5.14;100.00
45357;BME280;31092;51.924;21.448;2023-12-20T07:15:23;98637.81;;;5.17;100.00
45357;BME280;31092;51.924;21.448;2023-12-20T07:17:48;98636.13;;;5.16;100.00
45357;BME280;31092;51.924;21.448;2023-12-20T07:20:14;98637.97;;;5.15;100.00
45357;BME280;31092;51.924;21.448;2023-12-20T07:22:39;98647.66;;;5.16;100.00
45357;BME280;31092;51.924;21.448;2023-12-20T07:25:05;98606.50;;;4.94;100.00
45357;BME280;31092;51.924;21.448;2023-12-20T07:27:31;98649.63;;;5.22;100.00
45357;BME280;31092;51.924;21.448;2023-12-20T07:29:56;98653.31;;;5.21;100.00
45357;BME280;31092;51.924;21.448;2023-12-20T07:32:22;98615.47;;;5.01;100.00
45357;BME280;31092;51.924;21.448;2023-12-20T07:34:47;98615.00;;;4.98;100.00
45357;BME280;31092;51.924;21.448;2023-12-20T07:37:13;98614.66;;;5.01;100.00
45357;BME280;31092;51.924;21.448;2023-12-20T07:39:42;98637.81;;;5.17;100.00
45357;BME280;31092;51.924;21.448;2023-12-20T07:42:08;98617.16;;;5.02;100.00
45357;BME280;31092;51.924;21.448;2023-12-20T07:44:34;98609.31;;;5.01;100.00
45357;BME280;31092;51.924;21.448;2023-12-20T07:47:03;98609.31;;;5.01;100.00
45357;BME280;31092;51.924;21.448;2023-12-20T07:49:29;98644.63;;;5.19;100.00
45357;BME280;31092;51.924;21.448;2023-12-20T07:51:55;98610.50;;;4.98;100.00
45357;BME280;31092;51.924;21.448;2023-12-20T07:54:20;98626.31;;;5.08;100.00
45357;BME280;31092;51.924;21.448;2023-12-20T07:56:46;98642.31;;;5.16;100.00
45357;BME280;31092;51.924;21.448;2023-12-20T07:59:12;98614.66;;;5.01;100.00
45357;BME280;31092;51.924;21.448;2023-12-20T08:01:37;98656.16;;;5.20;100.00
45357;BME280;31092;51.924;21.448;2023-12-20T08:04:03;98620.19;;;4.99;100.00
45357;BME280;31092;51.924;21.448;2023-12-20T08:06:29;98629.84;;;5.00;100.00
45357;BME280;31092;51.924;21.448;2023-12-20T08:08:54;98651.31;;;5.15;100.00
45357;BME280;31092;51.924;21.448;2023-12-20T08:11:19;98650.34;;;5.16;100.00
45357;BME280;31092;51.924;21.448;2023-12-20T08:13:45;98615.00;;;4.98;100.00
45357;BME280;31092;51.924;21.448;2023-12-20T08:16:11;98643.81;;;5.19;100.00
45357;BME280;31092;51.924;21.448;2023-12-20T08:18:39;98640.00;;;5.13;100.00
45357;BME280;31092;51.924;21.448;2023-12-20T08:21:04;98612.50;;;4.96;100.00
45357;BME280;31092;51.924;21.448;2023-12-20T08:23:32;98644.13;;;5.16;100.00
45357;BME280;31092;51.924;21.448;2023-12-20T08:26:07;98650.50;;;5.15;100.00
45357;BME280;31092;51.924;21.448;2023-12-20T08:28:32;98644.13;;;5.16;100.00
45357;BME280;31092;51.924;21.448;2023-12-20T08:30:58;98652.16;;;5.16;100.00
45357;BME280;31092;51.924;21.448;2023-12-20T08:33:24;98612.31;;;4.98;100.00
45357;BME280;31092;51.924;21.448;2023-12-20T08:35:49;98653.84;;;5.17;100.00
45357;BME280;31092;51.924;21.448;2023-12-20T08:38:15;98623.00;;;4.98;100.00
45357;BME280;31092;51.924;21.448;2023-12-20T08:40:40;98651.66;;;5.12;100.00
45357;BME280;31092;51.924;21.448;2023-12-20T08:43:06;98658.69;;;5.13;100.00
45357;BME280;31092;51.924;21.448;2023-12-20T08:45:32;98635.66;;;5.04;100.00
45357;BME280;31092;51.924;21.448;2023-12-20T08:47:57;98647.00;;;5.14;100.00
45357;BME280;31092;51.924;21.448;2023-12-20T08:50:23;98614.50;;;4.94;100.00
45357;BME280;31092;51.924;21.448;2023-12-20T08:52:48;98617.66;;;4.98;100.00
45357;BME280;31092;51.924;21.448;2023-12-20T08:55:14;98627.66;;;5.04;100.00
45357;BME280;31092;51.924;21.448;2023-12-20T08:57:41;98618.16;;;5.01;100.00
45357;BME280;31092;51.924;21.448;2023-12-20T09:00:07;98649.47;;;5.16;100.00
45357;BME280;31092;51.924;21.448;2023-12-20T09:02:33;98625.47;;;5.08;100.00
45357;BME280;31092;51.924;21.448;2023-12-20T09:05:01;98615.00;;;4.98;100.00
45357;BME280;31092;51.924;21.448;2023-12-20T09:07:27;98642.97;;;5.18;100.00
45357;BME280;31092;51.924;21.448;2023-12-20T09:09:55;98614.50;;;5.02;100.00
45357;BME280;31092;51.924;21.448;2023-12-20T09:12:21;98629.47;;;5.12;100.00
45357;BME280;31092;51.924;21.448;2023-12-20T09:14:47;98619.63;;;5.12;100.00
45357;BME280;31092;51.924;21.448;2023-12-20T09:17:15;98606.66;;;5.01;100.00
45357;BME280;31092;51.924;21.448;2023-12-20T09:19:41;98611.31;;;5.07;100.00
45357;BME280;31092;51.924;21.448;2023-12-20T09:22:07;98627.78;;;5.19;100.00
45357;BME280;31092;51.924;21.448;2023-12-20T09:24:33;98617.94;;;5.19;100.00
45357;BME280;31092;51.924;21.448;2023-12-20T09:26:59;98601.31;;;5.09;100.00
45357;BME280;31092;51.924;21.448;2023-12-20T09:29:24;98614.63;;;5.17;100.00
45357;BME280;31092;51.924;21.448;2023-12-20T09:31:50;98576.66;;;4.99;100.00
45357;BME280;31092;51.924;21.448;2023-12-20T09:34:16;98610.94;;;5.18;100.00
45357;BME280;31092;51.924;21.448;2023-12-20T09:36:42;98575.31;;;5.03;100.00
45357;BME280;31092;51.924;21.448;2023-12-20T09:39:15;98608.13;;;5.20;100.00
45357;BME280;31092;51.924;21.448;2023-12-20T09:41:45;98610.59;;;5.21;100.00
45357;BME280;31092;51.924;21.448;2023-12-20T09:44:16;98612.59;;;5.19;100.00
45357;BME280;31092;51.924;21.448;2023-12-20T09:46:44;98581.78;;;5.09;100.00
45357;BME280;31092;51.924;21.448;2023-12-20T09:49:11;98603.78;;;5.19;100.00
45357;BME280;31092;51.924;21.448;2023-12-20T09:51:37;98563.97;;;5.01;100.00
45357;BME280;31092;51.924;21.448;2023-12-20T09:54:03;98566.81;;;4.99;100.00
45357;BME280;31092;51.924;21.448;2023-12-20T09:56:29;98565.28;;;5.05;100.00
45357;BME280;31092;51.924;21.448;2023-12-20T09:58:55;98591.09;;;5.21;100.00
45357;BME280;31092;51.924;21.448;2023-12-20T10:01:21;98559.31;;;5.03;100.00
45357;BME280;31092;51.924;21.448;2023-12-20T10:03:47;98594.59;;;5.21;100.00
45357;BME280;31092;51.924;21.448;2023-12-20T10:06:13;98576.94;;;5.20;100.00
45357;BME280;31092;51.924;21.448;2023-12-20T10:08:38;98557.16;;;4.98;100.00
45357;BME280;31092;51.924;21.448;2023-12-20T10:11:05;98575.63;;;5.16;100.00
45357;BME280;31092;51.924;21.448;2023-12-20T10:13:30;98584.94;;;5.20;100.00
45357;BME280;31092;51.924;21.448;2023-12-20T10:15:56;98580.94;;;5.16;100.00
45357;BME280;31092;51.924;21.448;2023-12-20T10:18:22;98571.75;;;5.19;100.00
45357;BME280;31092;51.924;21.448;2023-12-20T10:20:48;98578.91;;;5.18;100.00
45357;BME280;31092;51.924;21.448;2023-12-20T10:23:15;98554.50;;;4.98;100.00
45357;BME280;31092;51.924;21.448;2023-12-20T10:25:41;98549.63;;;4.94;100.00
45357;BME280;31092;51.924;21.448;2023-12-20T10:28:14;98580.28;;;5.14;100.00
45357;BME280;31092;51.924;21.448;2023-12-20T10:30:42;98575.94;;;5.13;100.00
45357;BME280;31092;51.924;21.448;2023-12-20T10:33:09;98569.59;;;5.14;100.00
45357;BME280;31092;51.924;21.448;2023-12-20T10:35:39;98541.78;;;5.00;100.00
45357;BME280;31092;51.924;21.448;2023-12-20T10:38:06;98560.91;;;5.12;100.00
45357;BME280;31092;51.924;21.448;2023-12-20T10:40:35;98562.75;;;5.20;100.00
45357;BME280;31092;51.924;21.448;2023-12-20T10:43:02;98530.97;;;5.02;100.00
45357;BME280;31092;51.924;21.448;2023-12-20T10:45:28;98537.63;;;5.06;100.00
45357;BME280;31092;51.924;21.448;2023-12-20T10:47:53;98524.75;;;5.01;100.00
45357;BME280;31092;51.924;21.448;2023-12-20T10:50:19;98559.06;;;5.21;100.00
45357;BME280;31092;51.924;21.448;2023-12-20T10:52:46;98547.09;;;5.17;100.00
45357;BME280;31092;51.924;21.448;2023-12-20T10:55:13;98519.97;;;4.97;100.00
45357;BME280;31092;51.924;21.448;2023-12-20T10:57:39;98527.63;;;5.00;100.00
45357;BME280;31092;51.924;21.448;2023-12-20T11:00:06;98525.78;;;5.00;100.00
45357;BME280;31092;51.924;21.448;2023-12-20T11:02:39;98556.56;;;5.19;100.00
45357;BME280;31092;51.924;21.448;2023-12-20T11:05:33;98554.59;;;5.13;100.00
45357;BME280;31092;51.924;21.448;2023-12-20T11:08:10;98553.94;;;5.11;100.00
45357;BME280;31092;51.924;21.448;2023-12-20T11:11:13;98553.94;;;5.11;100.00
45357;BME280;31092;51.924;21.448;2023-12-20T11:14:07;98538.09;;;5.01;100.00
45357;BME280;31092;51.924;21.448;2023-12-20T11:16:40;98533.63;;;5.02;100.00
45357;BME280;31092;51.924;21.448;2023-12-20T11:19:06;98540.63;;;5.03;100.00
45357;BME280;31092;51.924;21.448;2023-12-20T11:21:32;98532.13;;;4.99;100.00
45357;BME280;31092;51.924;21.448;2023-12-20T11:23:59;98545.63;;;5.06;100.00
45357;BME280;31092;51.924;21.448;2023-12-20T11:26:29;98505.00;;;4.88;100.00
45357;BME280;31092;51.924;21.448;2023-12-20T11:29:30;98540.09;;;5.08;100.00
45357;BME280;31092;51.924;21.448;2023-12-20T11:31:57;98523.59;;;5.04;100.00
45357;BME280;31092;51.924;21.448;2023-12-20T11:34:27;98491.47;;;4.89;100.00
45357;BME280;31092;51.924;21.448;2023-12-20T11:36:59;98522.09;;;5.10;100.00
45357;BME280;31092;51.924;21.448;2023-12-20T11:39:26;98516.91;;;5.08;100.00
45357;BME280;31092;51.924;21.448;2023-12-20T11:41:54;98511.91;;;5.05;100.00
45357;BME280;31092;51.924;21.448;2023-12-20T11:44:21;98525.09;;;5.07;100.00
45357;BME280;31092;51.924;21.448;2023-12-20T11:46:47;98467.03;;;4.77;100.00
45357;BME280;31092;51.924;21.448;2023-12-20T11:49:13;98480.81;;;4.89;100.00
45357;BME280;31092;51.924;21.448;2023-12-20T11:51:41;98511.56;;;5.08;100.00
45357;BME280;31092;51.924;21.448;2023-12-20T11:54:07;98507.91;;;5.09;100.00
45357;BME280;31092;51.924;21.448;2023-12-20T11:56:35;98487.94;;;4.97;100.00
45357;BME280;31092;51.924;21.448;2023-12-20T11:59:01;98502.06;;;5.14;100.00
45357;BME280;31092;51.924;21.448;2023-12-20T12:01:26;98491.72;;;5.11;100.00
45357;BME280;31092;51.924;21.448;2023-12-20T12:04:05;98490.22;;;5.08;100.00
45357;BME280;31092;51.924;21.448;2023-12-20T12:06:30;98461.94;;;4.91;100.00
45357;BME280;31092;51.924;21.448;2023-12-20T12:08:56;98448.97;;;4.88;100.00
45357;BME280;31092;51.924;21.448;2023-12-20T12:11:22;98481.91;;;5.03;100.00
45357;BME280;31092;51.924;21.448;2023-12-20T12:13:48;98463.16;;;4.88;100.00
45357;BME280;31092;51.924;21.448;2023-12-20T12:16:18;98455.31;;;4.87;100.00
45357;BME280;31092;51.924;21.448;2023-12-20T12:18:44;98490.47;;;4.98;100.00
45357;BME280;31092;51.924;21.448;2023-12-20T12:21:10;98484.44;;;4.96;100.00
45357;BME280;31092;51.924;21.448;2023-12-20T12:23:36;98484.44;;;4.96;100.00
45357;BME280;31092;51.924;21.448;2023-12-20T12:26:04;98485.41;;;5.03;100.00
45357;BME280;31092;51.924;21.448;2023-12-20T12:28:29;98468.09;;;4.99;100.00
45357;BME280;31092;51.924;21.448;2023-12-20T12:30:58;98470.91;;;5.06;100.00
45357;BME280;31092;51.924;21.448;2023-12-20T12:33:25;98428.81;;;4.85;100.00
45357;BME280;31092;51.924;21.448;2023-12-20T12:35:51;98467.41;;;5.06;100.00
45357;BME280;31092;51.924;21.448;2023-12-20T12:38:20;98463.06;;;5.04;100.00
45357;BME280;31092;51.924;21.448;2023-12-20T12:40:45;98466.25;;;5.00;100.00
45357;BME280;31092;51.924;21.448;2023-12-20T12:43:11;98439.81;;;4.82;100.00
45357;BME280;31092;51.924;21.448;2023-12-20T12:45:38;98455.97;;;4.89;100.00